Time,TemperatureF,DewpointF,PressureIn,WindDirection,WindDirectionDegrees,WindSpeedMPH,WindSpeedGustMPH,Humidity,HourlyPrecipIn,Conditions,Clouds,dailyrainin,SoftwareType,DateUTC
2013-01-31 00:15:00,46.7,45.0,29.32,SW,235,2.0,8.0,93,0.04,,,0.02,weatherlink.com 1.10,2013-01-31 05:15:00,
2013-01-31 00:30:00,46.3,44.0,29.29,North,355,1.0,8.0,93,0.04,,,0.03,weatherlink.com 1.10,2013-01-31 05:30:00,
2013-01-31 00:45:00,46.0,44.0,29.29,NNW,335,8.0,8.0,92,0.04,,,0.04,weatherlink.com 1.10,2013-01-31 05:45:00,
2013-01-31 01:00:00,45.7,43.0,29.33,ENE,61,1.0,10.0,91,0.03,,,0.04,weatherlink.com 1.10,2013-01-31 06:00:00,
2013-01-31 01:15:00,41.2,38.0,29.35,SW,226,9.0,13.0,88,0.03,,,0.05,weatherlink.com 1.10,2013-01-31 06:15:00,
2013-01-31 01:30:00,39.9,38.0,29.36,SW,231,4.0,7.0,91,0.03,,,0.06,weatherlink.com 1.10,2013-01-31 06:30:00,
2013-01-31 01:45:00,39.2,37.0,29.40,South,177,1.0,13.0,90,0.03,,,0.07,weatherlink.com 1.10,2013-01-31 06:45:00,
2013-01-31 02:00:00,38.5,36.0,29.41,ENE,63,2.0,12.0,89,0.03,,,0.07,weatherlink.com 1.10,2013-01-31 07:00:00,
2013-01-31 02:15:00,37.9,35.0,29.42,WNW,287,4.0,7.0,90,0.03,,,0.08,weatherlink.com 1.10,2013-01-31 07:15:00,
2013-01-31 02:30:00,37.5,35.0,29.43,SSE,155,4.0,14.0,89,0.02,,,0.08,weatherlink.com 1.10,2013-01-31 07:30:00,
2013-01-31 02:45:00,37.0,34.0,29.44,SW,233,4.0,17.0,88,0.02,,,0.09,weatherlink.com 1.10,2013-01-31 07:45:00,
2013-01-31 03:00:00,36.1,34.0,29.46,NNE,23,4.0,7.0,90,0.03,,,0.10,weatherlink.com 1.10,2013-01-31 08:00:00,
2013-01-31 03:16:00,-999.0,-99.9,29.47,North,-999,-999.0,-999.0,-999,0.02,,,0.10,weatherlink.com 1.10,2013-01-31 08:16:00,
2013-01-31 03:31:00,-999.0,-99.9,29.47,North,-999,-999.0,-999.0,-999,0.01,,,0.10,weatherlink.com 1.10,2013-01-31 08:31:00,
2013-01-31 03:46:00,-999.0,-99.9,29.48,North,-999,-999.0,-999.0,-999,0.01,,,0.10,weatherlink.com 1.10,2013-01-31 08:46:00,
2013-01-31 04:01:00,-999.0,-99.9,29.50,North,-999,-999.0,-999.0,-999,0.00,,,0.10,weatherlink.com 1.10,2013-01-31 09:01:00,
2013-01-31 04:16:00,-999.0,-99.9,29.51,North,-999,-999.0,-999.0,-999,0.00,,,0.10,weatherlink.com 1.10,2013-01-31 09:16:00,
2013-01-31 04:31:00,-999.0,-99.9,29.52,North,-999,-999.0,-999.0,-999,0.00,,,0.10,weatherlink.com 1.10,2013-01-31 09:31:00,
2013-01-31 04:46:00,-999.0,-99.9,29.53,North,-999,-999.0,-999.0,-999,0.00,,,0.10,weatherlink.com 1.10,2013-01-31 09:46:00,
2013-01-31 05:01:00,-999.0,-99.9,29.54,North,-999,-999.0,-999.0,-999,0.00,,,0.10,weatherlink.com 1.10,2013-01-31 10:01:00,
2013-01-31 05:16:00,-999.0,-99.9,29.55,North,-999,-999.0,-999.0,-999,0.00,,,0.10,weatherlink.com 1.10,2013-01-31 10:16:00,
2013-01-31 05:31:00,-999.0,-99.9,29.55,North,-999,-999.0,-999.0,-999,0.00,,,0.10,weatherlink.com 1.10,2013-01-31 10:31:00,
2013-01-31 05:46:00,-999.0,-99.9,29.56,North,-999,-999.0,-999.0,-999,0.00,,,0.10,weatherlink.com 1.10,2013-01-31 10:46:00,
2013-01-31 06:01:00,-999.0,-99.9,29.57,North,-999,-999.0,-999.0,-999,0.00,,,0.10,weatherlink.com 1.10,2013-01-31 11:01:00,
2013-01-31 06:16:00,-999.0,-99.9,29.58,North,-999,-999.0,-999.0,-999,0.00,,,0.10,weatherlink.com 1.10,2013-01-31 11:16:00,
2013-01-31 06:31:00,-999.0,-99.9,29.60,North,-999,-999.0,-999.0,-999,0.00,,,0.10,weatherlink.com 1.10,2013-01-31 11:31:00,
2013-01-31 06:47:00,-999.0,-99.9,29.61,North,-999,-999.0,-999.0,-999,0.00,,,0.10,weatherlink.com 1.10,2013-01-31 11:47:00,
2013-01-31 07:02:00,-999.0,-99.9,29.62,North,-999,-999.0,-999.0,-999,0.00,,,0.10,weatherlink.com 1.10,2013-01-31 12:02:00,
2013-01-31 07:17:00,-999.0,-99.9,29.63,North,-999,-999.0,-999.0,-999,0.00,,,0.10,weatherlink.com 1.10,2013-01-31 12:17:00,
2013-01-31 07:32:00,-999.0,-99.9,29.64,North,-999,-999.0,-999.0,-999,0.00,,,0.10,weatherlink.com 1.10,2013-01-31 12:32:00,
2013-01-31 07:47:00,-999.0,-99.9,29.64,North,-999,-999.0,-999.0,-999,0.00,,,0.10,weatherlink.com 1.10,2013-01-31 12:47:00,
2013-01-31 08:02:00,-999.0,-99.9,29.65,North,-999,-999.0,-999.0,-999,0.00,,,0.10,weatherlink.com 1.10,2013-01-31 13:02:00,
2013-01-31 08:17:00,-999.0,-99.9,29.65,North,-999,-999.0,-999.0,-999,0.00,,,0.10,weatherlink.com 1.10,2013-01-31 13:17:00,
2013-01-31 08:47:00,29.4,26.0,29.67,SW,224,4.0,5.0,87,0.00,,,0.10,weatherlink.com 1.10,2013-01-31 13:47:00,
2013-01-31 09:02:00,28.5,26.0,29.68,NW,313,2.0,7.0,91,0.00,,,0.10,weatherlink.com 1.10,2013-01-31 14:02:00,
2013-01-31 09:17:00,27.9,26.0,29.69,SW,223,2.0,9.0,92,0.00,,,0.10,weatherlink.com 1.10,2013-01-31 14:17:00,
2013-01-31 09:32:00,27.7,26.0,29.70,NNW,333,3.0,8.0,94,0.00,,,0.10,weatherlink.com 1.10,2013-01-31 14:32:00,
2013-01-31 09:47:00,27.4,26.0,29.70,SW,229,2.0,6.0,94,0.00,,,0.10,weatherlink.com 1.10,2013-01-31 14:47:00,
2013-01-31 10:02:00,27.0,26.0,29.72,NW,305,2.0,7.0,94,0.00,,,0.10,weatherlink.com 1.10,2013-01-31 15:02:00,
2013-01-31 10:17:00,27.0,25.0,29.73,SW,233,3.0,7.0,93,0.00,,,0.10,weatherlink.com 1.10,2013-01-31 15:17:00,
2013-01-31 10:32:00,27.0,25.0,29.75,SW,234,0.0,9.0,92,0.00,,,0.10,weatherlink.com 1.10,2013-01-31 15:32:00,
2013-01-31 10:48:00,27.0,23.0,29.76,NNW,330,2.0,9.0,86,0.00,,,0.10,weatherlink.com 1.10,2013-01-31 15:48:00,
2013-01-31 11:03:00,27.7,24.0,29.77,NW,307,2.0,11.0,84,0.00,,,0.10,weatherlink.com 1.10,2013-01-31 16:03:00,
2013-01-31 11:18:00,28.7,22.0,29.77,NNW,333,2.0,10.0,76,0.00,,,0.10,weatherlink.com 1.10,2013-01-31 16:18:00,
2013-01-31 11:33:00,28.6,22.0,29.77,SW,214,8.0,10.0,76,0.00,,,0.10,weatherlink.com 1.10,2013-01-31 16:33:00,
2013-01-31 11:48:00,28.6,22.0,29.77,NW,322,2.0,10.0,77,0.00,,,0.10,weatherlink.com 1.10,2013-01-31 16:48:00,
2013-01-31 12:03:00,28.8,22.0,29.77,NNW,342,2.0,11.0,74,0.00,,,0.10,weatherlink.com 1.10,2013-01-31 17:03:00,
2013-01-31 12:18:00,29.0,22.0,29.78,West,281,2.0,20.0,74,0.00,,,0.10,weatherlink.com 1.10,2013-01-31 17:18:00,
2013-01-31 12:33:00,28.7,22.0,29.78,NNW,335,5.0,13.0,75,0.00,,,0.10,weatherlink.com 1.10,2013-01-31 17:33:00,
2013-01-31 12:48:00,28.7,21.0,29.78,South,171,1.0,9.0,73,0.00,,,0.10,weatherlink.com 1.10,2013-01-31 17:48:00,
2013-01-31 13:03:00,28.5,24.0,29.79,West,274,3.0,10.0,82,0.00,,,0.10,weatherlink.com 1.10,2013-01-31 18:03:00,
2013-01-31 13:18:00,27.3,24.0,29.78,WNW,288,2.0,12.0,86,0.00,,,0.10,weatherlink.com 1.10,2013-01-31 18:18:00,
2013-01-31 13:33:00,28.5,24.0,29.78,WSW,241,0.0,5.0,82,0.00,,,0.10,weatherlink.com 1.10,2013-01-31 18:33:00,
2013-01-31 13:48:00,28.5,22.0,29.79,WSW,238,6.0,13.0,78,0.00,,,0.10,weatherlink.com 1.10,2013-01-31 18:48:00,
2013-01-31 14:18:00,26.2,23.0,29.81,West,277,2.0,17.0,89,0.00,,,0.10,weatherlink.com 1.10,2013-01-31 19:18:00,
2013-01-31 14:33:00,26.1,22.0,29.81,SW,219,6.0,10.0,85,0.00,,,0.10,weatherlink.com 1.10,2013-01-31 19:33:00,
2013-01-31 14:48:00,26.4,21.0,29.82,West,278,2.0,9.0,80,0.00,,,0.10,weatherlink.com 1.10,2013-01-31 19:48:00,
2013-01-31 15:03:00,27.0,19.0,29.84,WSW,254,1.0,13.0,72,0.00,,,0.10,weatherlink.com 1.10,2013-01-31 20:03:00,
2013-01-31 15:18:00,26.3,18.0,29.86,SW,219,4.0,6.0,72,0.00,,,0.10,weatherlink.com 1.10,2013-01-31 20:18:00,
2013-01-31 15:33:00,25.9,17.0,29.86,NNW,345,1.0,9.0,70,0.00,,,0.10,weatherlink.com 1.10,2013-01-31 20:33:00,
2013-01-31 15:48:00,26.0,17.0,29.87,South,190,1.0,7.0,68,0.00,,,0.10,weatherlink.com 1.10,2013-01-31 20:48:00,
2013-01-31 16:18:00,26.4,15.0,29.88,West,281,1.0,17.0,63,0.00,,,0.10,weatherlink.com 1.10,2013-01-31 21:18:00,
2013-01-31 16:33:00,26.7,15.0,29.88,West,274,2.0,9.0,62,0.00,,,0.10,weatherlink.com 1.10,2013-01-31 21:33:00,
2013-01-31 16:48:00,26.5,15.0,29.89,SW,227,3.0,12.0,61,0.00,,,0.10,weatherlink.com 1.10,2013-01-31 21:48:00,
2013-01-31 17:03:00,26.3,14.0,29.89,West,277,2.0,10.0,60,0.00,,,0.10,weatherlink.com 1.10,2013-01-31 22:03:00,
2013-01-31 17:18:00,26.0,15.0,29.89,West,264,1.0,6.0,63,0.00,,,0.10,weatherlink.com 1.10,2013-01-31 22:18:00,
2013-01-31 17:33:00,25.6,15.0,29.90,SW,223,5.0,5.0,64,0.00,,,0.10,weatherlink.com 1.10,2013-01-31 22:33:00,
2013-01-31 17:48:00,25.3,14.0,29.90,WNW,297,0.0,8.0,63,0.00,,,0.10,weatherlink.com 1.10,2013-01-31 22:48:00,
2013-01-31 18:03:00,25.2,15.0,29.90,NW,321,0.0,4.0,65,0.00,,,0.10,weatherlink.com 1.10,2013-01-31 23:03:00,
2013-01-31 18:18:00,25.2,16.0,29.91,West,271,0.0,7.0,67,0.00,,,0.10,weatherlink.com 1.10,2013-01-31 23:18:00,
2013-01-31 18:34:00,25.5,16.0,29.91,WNW,302,1.0,6.0,67,0.00,,,0.10,weatherlink.com 1.10,2013-01-31 23:34:00,
2013-01-31 18:49:00,25.4,17.0,29.91,WNW,284,0.0,12.0,69,0.00,,,0.10,weatherlink.com 1.10,2013-01-31 23:49:00,
2013-01-31 19:04:00,25.0,17.0,29.91,West,278,0.0,6.0,71,0.00,,,0.10,weatherlink.com 1.10,2013-02-01 00:04:00,
2013-01-31 19:19:00,24.7,17.0,29.92,WSW,241,0.0,4.0,72,0.00,,,0.10,weatherlink.com 1.10,2013-02-01 00:19:00,
2013-01-31 19:34:00,24.4,17.0,29.91,SW,219,1.0,4.0,74,0.00,,,0.10,weatherlink.com 1.10,2013-02-01 00:34:00,
2013-01-31 19:49:00,24.1,18.0,29.92,SSW,194,3.0,4.0,77,0.00,,,0.10,weatherlink.com 1.10,2013-02-01 00:49:00,
2013-01-31 20:04:00,24.2,19.0,29.92,SW,228,2.0,4.0,79,0.00,,,0.10,weatherlink.com 1.10,2013-02-01 01:04:00,
2013-01-31 20:19:00,24.1,19.0,29.92,WSW,253,1.0,9.0,81,0.00,,,0.10,weatherlink.com 1.10,2013-02-01 01:19:00,
2013-01-31 20:34:00,23.9,19.0,29.92,WNW,298,0.0,3.0,82,0.00,,,0.10,weatherlink.com 1.10,2013-02-01 01:34:00,
2013-01-31 20:49:00,23.8,19.0,29.92,NW,310,1.0,3.0,82,0.00,,,0.10,weatherlink.com 1.10,2013-02-01 01:49:00,
2013-01-31 21:04:00,23.9,19.0,29.93,SW,229,0.0,3.0,82,0.00,,,0.10,weatherlink.com 1.10,2013-02-01 02:04:00,
2013-01-31 21:19:00,24.0,19.0,29.92,NNW,338,0.0,1.0,82,0.00,,,0.10,weatherlink.com 1.10,2013-02-01 02:19:00,
2013-01-31 21:34:00,24.1,20.0,29.93,SW,225,1.0,2.0,83,0.00,,,0.10,weatherlink.com 1.10,2013-02-01 02:34:00,
2013-01-31 21:49:00,24.3,20.0,29.92,West,263,1.0,3.0,83,0.00,,,0.10,weatherlink.com 1.10,2013-02-01 02:49:00,
2013-01-31 22:04:00,24.4,20.0,29.92,SSW,207,1.0,3.0,83,0.00,,,0.10,weatherlink.com 1.10,2013-02-01 03:04:00,
2013-01-31 22:19:00,24.7,21.0,29.92,WSW,256,0.0,3.0,87,0.00,,,0.10,weatherlink.com 1.10,2013-02-01 03:19:00,
2013-01-31 22:34:00,24.6,22.0,29.91,SSW,210,0.0,1.0,88,0.00,,,0.10,weatherlink.com 1.10,2013-02-01 03:34:00,
2013-01-31 22:49:00,24.5,22.0,29.91,SW,229,0.0,1.0,88,0.00,,,0.10,weatherlink.com 1.10,2013-02-01 03:49:00,
2013-01-31 23:04:00,24.6,22.0,29.91,SW,229,0.0,1.0,89,0.00,,,0.10,weatherlink.com 1.10,2013-02-01 04:04:00,
2013-01-31 23:19:00,24.7,22.0,29.90,SW,233,0.0,1.0,90,0.00,,,0.10,weatherlink.com 1.10,2013-02-01 04:19:00,
2013-01-31 23:34:00,24.6,22.0,29.90,SW,222,0.0,2.0,90,0.00,,,0.10,weatherlink.com 1.10,2013-02-01 04:34:00,
2013-01-31 23:49:00,24.6,22.0,29.89,East,95,1.0,1.0,91,0.00,,,0.10,weatherlink.com 1.10,2013-02-01 04:49:00,